Time;durP1;ratioP1;P1;durP2;ratioP2;P2;SDS_P1;SDS_P2;PMS_P1;PMS_P2;Temp;Humidity;BMP_temperature;BMP_pressure;BME280_temperature;BME280_humidity;BME280_pressure;Samples;Min_cycle;Max_cycle;Signal;HPM_P1;HPM_P2
2023/09/14 00:00:19;;;;;;;15.32;14.23;;;19.50;99.90;;;;;;5052129;28;20036;-77
2023/09/14 00:02:45;;;;;;;15.20;14.10;;;19.50;99.90;;;;;;5050494;28;20402;-76
2023/09/14 00:05:11;;;;;;;13.23;12.40;;;19.50;99.90;;;;;;5051709;28;20032;-77
2023/09/14 00:07:37;;;;;;;12.68;11.82;;;19.50;99.90;;;;;;5051907;28;20037;-77
2023/09/14 00:10:04;;;;;;;13.85;12.80;;;19.40;99.90;;;;;;5051837;28;20494;-76
2023/09/14 00:12:30;;;;;;;12.68;11.70;;;19.40;99.90;;;;;;5051395;28;20040;-76
2023/09/14 00:14:56;;;;;;;12.35;11.38;;;19.40;99.90;;;;;;5050357;28;20056;-76
2023/09/14 00:17:22;;;;;;;12.85;11.75;;;19.40;99.90;;;;;;5051010;28;20036;-77
2023/09/14 00:19:48;;;;;;;12.75;12.02;;;19.30;99.90;;;;;;5052731;28;20032;-76
2023/09/14 00:22:14;;;;;;;11.73;10.82;;;19.30;99.90;;;;;;5049654;28;20036;-76
2023/09/14 00:24:40;;;;;;;11.95;11.05;;;19.30;99.90;;;;;;5052984;28;20043;-76
2023/09/14 00:27:07;;;;;;;12.07;10.98;;;19.30;99.90;;;;;;5052480;28;20029;-77
2023/09/14 00:29:33;;;;;;;11.73;10.82;;;19.30;99.90;;;;;;5052545;28;20029;-76
2023/09/14 00:31:59;;;;;;;13.68;12.68;;;19.20;99.90;;;;;;5050742;28;20472;-76
2023/09/14 00:34:25;;;;;;;12.43;11.40;;;19.20;99.90;;;;;;5052683;28;20045;-76
2023/09/14 00:36:51;;;;;;;12.23;11.32;;;19.30;99.90;;;;;;5052409;28;20475;-76
2023/09/14 00:39:17;;;;;;;12.40;11.20;;;19.20;99.90;;;;;;5052494;28;20040;-76
2023/09/14 00:41:43;;;;;;;11.85;10.98;;;19.10;99.90;;;;;;5049395;28;20036;-77
2023/09/14 00:44:09;;;;;;;12.23;11.23;;;19.20;99.90;;;;;;5051822;28;20040;-76
2023/09/14 00:46:35;;;;;;;11.48;10.75;;;19.10;99.90;;;;;;5051697;28;20044;-76
2023/09/14 00:49:01;;;;;;;13.95;13.02;;;19.00;99.90;;;;;;5051386;28;20025;-76
2023/09/14 00:51:29;;;;;;;15.38;14.32;;;18.90;99.90;;;;;;5047700;28;20033;-76
2023/09/14 00:53:56;;;;;;;14.18;12.98;;;18.90;99.90;;;;;;5052244;28;20040;-76
2023/09/14 00:56:22;;;;;;;16.90;15.82;;;18.90;99.90;;;;;;5030848;28;20033;-76
2023/09/14 00:58:48;;;;;;;16.20;14.90;;;18.80;99.90;;;;;;5030189;28;20048;-76
2023/09/14 01:01:14;;;;;;;15.10;14.20;;;18.80;99.90;;;;;;5022220;28;20471;-76
2023/09/14 01:03:40;;;;;;;15.63;14.52;;;18.80;99.90;;;;;;5050954;28;20036;-76
2023/09/14 01:06:07;;;;;;;15.25;13.65;;;18.80;99.90;;;;;;5051813;28;20036;-76
2023/09/14 01:08:33;;;;;;;13.32;12.43;;;18.90;99.90;;;;;;5034492;28;20033;-76
2023/09/14 01:10:59;;;;;;;14.00;12.75;;;18.80;99.90;;;;;;5050699;28;20033;-77
2023/09/14 01:13:50;;;;;;;13.57;12.68;;;18.90;99.90;;;;;;5049923;28;20037;-76
2023/09/14 01:16:21;;;;;;;13.10;11.88;;;18.80;99.90;;;;;;5036113;28;20053;-76
2023/09/14 01:19:01;;;;;;;13.48;12.38;;;18.70;99.90;;;;;;5051099;28;20021;-76
2023/09/14 01:21:45;;;;;;;12.95;11.57;;;18.70;99.90;;;;;;5033772;28;20487;-76
2023/09/14 01:24:16;;;;;;;12.68;11.75;;;18.70;99.90;;;;;;5051552;28;20029;-76
2023/09/14 01:26:42;;;;;;;13.82;12.82;;;18.60;99.90;;;;;;5051451;28;20499;-76
2023/09/14 01:29:08;;;;;;;14.15;12.90;;;18.60;99.90;;;;;;5034139;28;20033;-76
2023/09/14 01:31:35;;;;;;;12.77;11.73;;;18.70;99.90;;;;;;5050276;28;20048;-77
2023/09/14 01:34:01;;;;;;;12.85;11.82;;;18.70;99.90;;;;;;5050694;28;20061;-76
2023/09/14 01:36:36;;;;;;;15.10;13.82;;;18.60;99.90;;;;;;5050180;28;20025;-76
2023/09/14 01:39:04;;;;;;;12.13;11.13;;;18.50;99.90;;;;;;5050887;28;20029;-76
2023/09/14 01:41:31;;;;;;;12.55;11.63;;;18.50;99.90;;;;;;5049257;28;20044;-77
2023/09/14 01:43:57;;;;;;;11.93;10.98;;;18.50;99.90;;;;;;5051655;28;20029;-76
2023/09/14 01:46:24;;;;;;;11.60;10.25;;;18.40;99.90;;;;;;5051002;28;20033;-76
2023/09/14 01:48:50;;;;;;;11.20;10.23;;;18.40;99.90;;;;;;5034248;28;20044;-76
2023/09/14 01:51:16;;;;;;;11.57;10.45;;;18.40;99.90;;;;;;5050784;28;20033;-76
2023/09/14 01:53:42;;;;;;;12.98;10.55;;;18.40;99.90;;;;;;5050229;28;20037;-76
2023/09/14 01:56:09;;;;;;;11.35;10.35;;;18.40;99.90;;;;;;5050949;28;20029;-76
2023/09/14 01:58:35;;;;;;;10.40;9.65;;;18.40;99.90;;;;;;5050234;28;20052;-76
2023/09/14 02:01:01;;;;;;;11.23;10.32;;;18.40;99.90;;;;;;5048785;28;20041;-76
2023/09/14 02:03:27;;;;;;;11.40;10.50;;;18.30;99.90;;;;;;5051251;28;20021;-76
2023/09/14 02:05:58;;;;;;;11.02;10.10;;;18.30;99.90;;;;;;5051119;28;20029;-76
2023/09/14 02:08:25;;;;;;;11.50;10.50;;;18.30;99.90;;;;;;5050619;28;20029;-76
2023/09/14 02:10:51;;;;;;;11.32;10.40;;;18.30;99.90;;;;;;5051134;28;20387;-76
2023/09/14 02:13:18;;;;;;;11.60;10.80;;;18.30;99.90;;;;;;5054897;28;20029;-76
2023/09/14 02:15:44;;;;;;;11.77;10.90;;;18.20;99.90;;;;;;5048650;28;20045;-76
2023/09/14 02:18:10;;;;;;;13.70;12.50;;;18.30;99.90;;;;;;5017396;28;20037;-76
2023/09/14 02:20:36;;;;;;;13.40;12.25;;;18.30;99.90;;;;;;5034225;28;20025;-76
2023/09/14 02:23:02;;;;;;;13.07;12.02;;;18.40;99.90;;;;;;5035187;28;20029;-75
2023/09/14 02:25:28;;;;;;;12.73;11.27;;;18.40;99.90;;;;;;5017188;28;20034;-76
2023/09/14 02:27:54;;;;;;;13.73;12.73;;;18.30;99.90;;;;;;5035235;28;20352;-76
2023/09/14 02:30:20;;;;;;;14.57;13.52;;;18.30;99.90;;;;;;5033475;28;20383;-76
2023/09/14 02:32:46;;;;;;;13.38;12.38;;;18.20;99.90;;;;;;5035116;28;20037;-76
2023/09/14 02:35:13;;;;;;;12.80;11.75;;;18.20;99.90;;;;;;5034757;28;20038;-76
2023/09/14 02:37:39;;;;;;;13.60;12.45;;;18.20;99.90;;;;;;5035462;28;20495;-76
2023/09/14 02:40:08;;;;;;;13.82;12.48;;;18.10;99.90;;;;;;5031946;28;20034;-76
2023/09/14 02:42:36;;;;;;;13.05;11.90;;;18.10;99.90;;;;;;5017077;28;20044;-76
2023/09/14 02:45:05;;;;;;;12.15;11.43;;;18.00;99.90;;;;;;5032966;28;20038;-76
2023/09/14 02:47:31;;;;;;;12.90;11.73;;;18.00;99.90;;;;;;5034769;28;20396;-76
2023/09/14 02:49:58;;;;;;;14.57;13.43;;;18.00;99.90;;;;;;5032360;28;20029;-76
2023/09/14 02:52:25;;;;;;;12.80;12.00;;;17.90;99.90;;;;;;5033342;28;20029;-76
2023/09/14 02:54:51;;;;;;;11.77;10.80;;;17.90;99.90;;;;;;5034366;28;20113;-76
2023/09/14 02:57:17;;;;;;;13.43;12.50;;;17.90;99.90;;;;;;5032926;28;20069;-76
2023/09/14 02:59:43;;;;;;;11.73;10.82;;;17.80;99.90;;;;;;5032954;28;21275;-75
2023/09/14 03:02:09;;;;;;;12.10;11.10;;;17.80;99.90;;;;;;5032346;28;20037;-76
2023/09/14 03:04:35;;;;;;;12.00;11.10;;;17.80;99.90;;;;;;5033115;28;20041;-76
2023/09/14 03:07:01;;;;;;;11.18;10.45;;;17.80;99.90;;;;;;5032574;28;20030;-74
2023/09/14 03:09:28;;;;;;;11.43;10.27;;;17.90;99.90;;;;;;5033165;28;20404;-76
2023/09/14 03:11:54;;;;;;;13.35;12.40;;;17.80;99.90;;;;;;5033649;28;20029;-76
2023/09/14 03:14:21;;;;;;;9.40;8.68;;;17.80;99.90;;;;;;5034268;28;20052;-76
2023/09/14 03:16:48;;;;;;;10.18;9.38;;;17.80;99.90;;;;;;5033459;28;20037;-76
2023/09/14 03:19:14;;;;;;;10.55;9.85;;;17.80;99.90;;;;;;5032627;28;20021;-76
2023/09/14 03:21:41;;;;;;;10.98;10.20;;;17.80;99.90;;;;;;5032476;28;20033;-76
2023/09/14 03:24:07;;;;;;;10.60;9.90;;;17.70;99.90;;;;;;5033744;28;20025;-77
2023/09/14 03:26:33;;;;;;;12.02;11.02;;;17.70;99.90;;;;;;5033683;28;20041;-76
2023/09/14 03:28:59;;;;;;;10.82;10.02;;;17.70;99.90;;;;;;5034176;28;20460;-76
2023/09/14 03:31:25;;;;;;;12.07;10.90;;;17.70;99.90;;;;;;5031226;28;20041;-76
2023/09/14 03:33:54;;;;;;;11.55;10.85;;;17.70;99.90;;;;;;5036027;28;20048;-76
2023/09/14 03:36:20;;;;;;;11.85;10.95;;;17.70;99.90;;;;;;5032241;28;20037;-76
2023/09/14 03:38:46;;;;;;;11.43;10.50;;;17.70;99.90;;;;;;5032324;28;20530;-76
2023/09/14 03:41:12;;;;;;;10.70;9.98;;;17.70;99.90;;;;;;5031146;28;20033;-76
2023/09/14 03:43:39;;;;;;;11.13;10.23;;;17.60;99.90;;;;;;5033437;28;20036;-76
2023/09/14 03:46:06;;;;;;;12.20;11.20;;;17.60;99.90;;;;;;5032909;28;20081;-76
2023/09/14 03:48:32;;;;;;;10.88;10.07;;;17.70;99.90;;;;;;5032659;28;20021;-76
2023/09/14 03:50:59;;;;;;;10.13;9.40;;;17.70;99.90;;;;;;5031627;28;20030;-76
2023/09/14 03:53:26;;;;;;;9.80;9.02;;;17.70;99.90;;;;;;5031851;28;20044;-76
2023/09/14 03:55:53;;;;;;;10.27;9.27;;;17.60;99.90;;;;;;5033051;28;20381;-76
2023/09/14 03:58:19;;;;;;;13.75;10.90;;;17.60;99.90;;;;;;5030457;28;20452;-76
2023/09/14 04:00:45;;;;;;;9.60;8.93;;;17.50;99.90;;;;;;5030026;28;20048;-76
2023/09/14 04:03:11;;;;;;;11.02;10.32;;;17.50;99.90;;;;;;5031812;28;20052;-76
2023/09/14 04:05:37;;;;;;;10.20;9.30;;;17.50;99.90;;;;;;5031727;28;20033;-76
2023/09/14 04:08:04;;;;;;;9.85;9.07;;;17.50;99.90;;;;;;5031581;28;20040;-76
2023/09/14 04:10:30;;;;;;;9.85;9.15;;;17.50;99.90;;;;;;5031538;28;20046;-76
2023/09/14 04:13:23;;;;;;;10.00;9.38;;;17.50;99.90;;;;;;5032625;28;20144;-76
2023/09/14 04:15:49;;;;;;;10.95;10.00;;;17.50;99.90;;;;;;5030834;28;20041;-76
2023/09/14 04:18:15;;;;;;;11.73;10.60;;;17.50;99.90;;;;;;5033096;28;20034;-77
2023/09/14 04:20:41;;;;;;;11.13;10.13;;;17.50;99.90;;;;;;5031074;28;20048;-76
2023/09/14 04:23:07;;;;;;;10.88;10.07;;;17.50;99.90;;;;;;5032251;28;20384;-76
2023/09/14 04:25:33;;;;;;;11.93;10.75;;;17.50;99.90;;;;;;5032577;28;20044;-76
2023/09/14 04:27:59;;;;;;;11.60;10.77;;;17.50;99.90;;;;;;5032335;28;20393;-76
2023/09/14 04:30:26;;;;;;;10.50;8.77;;;17.50;99.90;;;;;;5032053;28;20028;-76
2023/09/14 04:32:52;;;;;;;9.57;8.70;;;17.50;99.90;;;;;;5032280;28;20380;-76
2023/09/14 04:35:18;;;;;;;9.52;8.77;;;17.50;99.90;;;;;;5030083;28;20040;-77
2023/09/14 04:37:44;;;;;;;11.05;10.07;;;17.50;99.90;;;;;;5031206;28;20460;-76
2023/09/14 04:40:11;;;;;;;12.90;10.38;;;17.50;99.90;;;;;;5032474;28;20028;-77
2023/09/14 04:42:37;;;;;;;13.50;12.23;;;17.50;99.90;;;;;;5032704;28;20048;-76
2023/09/14 04:45:04;;;;;;;13.57;12.55;;;17.50;99.90;;;;;;5032226;28;20037;-75
2023/09/14 04:47:30;;;;;;;9.40;8.70;;;17.40;99.90;;;;;;5032159;28;20052;-76
2023/09/14 04:49:56;;;;;;;9.15;8.45;;;17.40;99.90;;;;;;5032183;28;20029;-76
2023/09/14 04:52:22;;;;;;;9.80;8.90;;;17.40;99.90;;;;;;5032485;28;20029;-75
2023/09/14 04:54:48;;;;;;;9.40;8.60;;;17.30;99.90;;;;;;5032355;28;20384;-77
2023/09/14 04:57:14;;;;;;;13.07;12.18;;;17.40;99.90;;;;;;5031977;28;20041;-77
2023/09/14 04:59:40;;;;;;;11.43;10.43;;;17.30;99.90;;;;;;5032609;28;20037;-76
2023/09/14 05:02:06;;;;;;;12.05;11.10;;;17.30;99.90;;;;;;5048658;28;20403;-76
2023/09/14 05:04:32;;;;;;;11.23;10.27;;;17.30;99.90;;;;;;5050519;28;20033;-76
2023/09/14 05:06:58;;;;;;;10.50;9.75;;;17.30;99.90;;;;;;5051825;28;20422;-76
2023/09/14 05:09:24;;;;;;;11.07;10.13;;;17.30;99.90;;;;;;5033865;28;20037;-76
2023/09/14 05:11:51;;;;;;;10.57;9.70;;;17.30;99.90;;;;;;5050744;28;20399;-76
2023/09/14 05:14:17;;;;;;;10.32;9.52;;;17.30;99.90;;;;;;5050832;28;20056;-76
2023/09/14 05:16:43;;;;;;;10.18;9.48;;;17.20;99.90;;;;;;5048185;28;20067;-76
2023/09/14 05:19:09;;;;;;;10.85;10.07;;;17.10;99.90;;;;;;5030206;28;20021;-76
2023/09/14 05:21:35;;;;;;;11.93;11.02;;;17.10;99.90;;;;;;5030902;28;20140;-76
2023/09/14 05:24:01;;;;;;;13.68;12.63;;;17.10;99.90;;;;;;5030694;28;20408;-76
2023/09/14 05:26:27;;;;;;;13.10;12.20;;;17.10;99.90;;;;;;5031797;28;20037;-77
2023/09/14 05:28:53;;;;;;;43.50;12.32;;;17.10;99.90;;;;;;5045054;28;20021;-77
2023/09/14 05:31:20;;;;;;;13.30;12.30;;;17.10;99.90;;;;;;5021249;28;20038;-77
2023/09/14 05:33:46;;;;;;;13.68;12.90;;;17.00;99.90;;;;;;5031351;28;20272;-77
2023/09/14 05:36:12;;;;;;;12.68;11.90;;;17.00;99.90;;;;;;5031566;28;20403;-77
2023/09/14 05:38:38;;;;;;;13.50;12.60;;;17.00;99.90;;;;;;5029594;28;20021;-77
2023/09/14 05:41:04;;;;;;;13.57;12.70;;;17.00;99.90;;;;;;5031633;28;20040;-77
2023/09/14 05:43:30;;;;;;;9.10;8.60;;;17.00;99.90;;;;;;5030113;28;20511;-77
2023/09/14 05:45:57;;;;;;;10.60;10.00;;;17.00;99.90;;;;;;5031734;28;20037;-77
2023/09/14 05:48:23;;;;;;;13.20;12.50;;;17.00;99.90;;;;;;5034099;28;20388;-77
2023/09/14 05:50:49;;;;;;;12.35;11.45;;;16.90;99.90;;;;;;5034006;28;20033;-77
2023/09/14 05:53:15;;;;;;;12.68;11.88;;;16.90;99.90;;;;;;5030614;28;20469;-77
2023/09/14 05:55:41;;;;;;;10.57;9.90;;;16.90;99.90;;;;;;5035136;28;20101;-76
2023/09/14 05:58:07;;;;;;;9.85;9.25;;;16.90;99.90;;;;;;5035413;28;20479;-77
2023/09/14 06:00:33;;;;;;;10.25;9.65;;;16.90;99.90;;;;;;5032848;28;20510;-77
2023/09/14 06:02:59;;;;;;;7.82;7.22;;;16.90;99.90;;;;;;5033732;28;20033;-77
2023/09/14 06:05:25;;;;;;;8.25;7.65;;;16.90;99.90;;;;;;5033324;28;20036;-77
2023/09/14 06:07:55;;;;;;;9.27;8.68;;;16.90;99.90;;;;;;5034734;28;20407;-77
2023/09/14 06:10:21;;;;;;;10.95;10.30;;;16.90;99.90;;;;;;5033707;28;20055;-77
2023/09/14 06:12:47;;;;;;;8.02;7.43;;;16.90;99.90;;;;;;5034706;28;20117;-77
2023/09/14 06:15:13;;;;;;;9.40;8.90;;;16.90;99.90;;;;;;5032871;28;20061;-77
2023/09/14 06:17:39;;;;;;;8.20;7.50;;;16.90;99.90;;;;;;5030749;28;20041;-77
2023/09/14 06:20:06;;;;;;;8.18;7.70;;;16.90;99.90;;;;;;5034935;28;20026;-77
2023/09/14 06:22:32;;;;;;;8.60;8.00;;;17.00;99.90;;;;;;5034598;28;20036;-77
2023/09/14 06:24:58;;;;;;;7.63;7.07;;;17.00;99.90;;;;;;5035131;28;20037;-76
2023/09/14 06:27:24;;;;;;;9.20;8.45;;;17.00;99.90;;;;;;5033352;28;20037;-76
2023/09/14 06:29:50;;;;;;;11.80;11.10;;;17.00;99.90;;;;;;5034184;28;20036;-76
2023/09/14 06:32:16;;;;;;;19.02;17.98;;;17.20;99.90;;;;;;5032629;28;20045;-81
2023/09/14 06:34:42;;;;;;;16.48;15.52;;;17.40;99.90;;;;;;5034009;28;20025;-80
2023/09/14 06:37:08;;;;;;;39.63;37.63;;;17.70;99.90;;;;;;5016435;28;20048;-80
2023/09/14 06:39:35;;;;;;;34.33;32.35;;;18.00;99.90;;;;;;5035120;28;20030;-81
2023/09/14 06:42:01;;;;;;;65.53;62.35;;;18.20;99.90;;;;;;5023728;28;20045;-80
2023/09/14 06:44:27;;;;;;;74.28;70.65;;;18.50;99.90;;;;;;5032322;28;20045;-81
2023/09/14 06:46:53;;;;;;;59.22;56.35;;;18.70;99.90;;;;;;5033444;28;20534;-81
2023/09/14 06:49:19;;;;;;;54.03;51.33;;;18.90;99.90;;;;;;5033630;28;20034;-80
2023/09/14 06:51:46;;;;;;;55.88;53.03;;;19.20;99.90;;;;;;5031542;28;20022;-80
2023/09/14 06:54:12;;;;;;;76.68;72.85;;;19.50;99.90;;;;;;5034816;28;20468;-80
2023/09/14 06:56:39;;;;;;;96.50;91.63;;;19.70;99.90;;;;;;5032820;28;20043;-79
2023/09/14 06:59:05;;;;;;;118.15;112.38;;;20.00;99.90;;;;;;5032304;28;20026;-79
2023/09/14 07:01:31;;;;;;;142.88;135.82;;;20.30;99.90;;;;;;5031870;28;20030;-79
2023/09/14 07:03:57;;;;;;;162.52;154.70;;;20.50;99.90;;;;;;5032331;28;20041;-79
2023/09/14 07:06:23;;;;;;;117.78;112.13;;;20.70;99.90;;;;;;5034397;28;20048;-79
2023/09/14 07:08:49;;;;;;;190.88;181.52;;;20.80;99.90;;;;;;5033377;28;20025;-79
2023/09/14 07:11:15;;;;;;;203.27;193.25;;;21.00;99.90;;;;;;5032870;28;20029;-79
2023/09/14 07:13:41;;;;;;;206.90;196.98;;;21.20;99.90;;;;;;5013810;28;20403;-77
2023/09/14 07:16:08;;;;;;;175.95;167.48;;;21.30;99.90;;;;;;5032714;28;20060;-80
2023/09/14 07:18:34;;;;;;;238.02;226.60;;;21.60;99.90;;;;;;5034043;28;20029;-79
2023/09/14 07:21:04;;;;;;;152.18;144.73;;;21.70;99.90;;;;;;5032779;28;20038;-80
2023/09/14 07:23:32;;;;;;;256.65;244.35;;;21.90;99.90;;;;;;5031877;28;20116;-79
2023/09/14 07:25:58;;;;;;;254.85;242.70;;;21.60;99.90;;;;;;5029783;28;20384;-80
2023/09/14 07:28:25;;;;;;;231.35;219.95;;;21.30;99.90;;;;;;5032163;28;20044;-79
2023/09/14 07:30:51;;;;;;;229.90;218.65;;;21.30;99.90;;;;;;5029351;28;20037;-80
2023/09/14 07:33:17;;;;;;;224.68;213.38;;;21.20;99.90;;;;;;5031398;28;20029;-80
2023/09/14 07:35:47;;;;;;;235.98;224.27;;;21.10;99.90;;;;;;5033161;28;20045;-78
2023/09/14 07:38:13;;;;;;;186.80;177.07;;;21.10;99.90;;;;;;5024391;28;20025;-79
2023/09/14 07:40:40;;;;;;;181.73;172.32;;;21.20;99.90;;;;;;5032922;28;20025;-80
2023/09/14 07:43:06;;;;;;;186.55;176.73;;;21.10;99.90;;;;;;5010613;28;20021;-79
2023/09/14 07:45:35;;;;;;;176.38;166.82;;;20.90;99.90;;;;;;5021751;28;20476;-81
2023/09/14 07:48:02;;;;;;;198.93;188.77;;;20.70;99.90;;;;;;5031956;28;20500;-81
2023/09/14 07:50:29;;;;;;;177.02;167.68;;;20.80;99.90;;;;;;5029769;28;20030;-80
2023/09/14 07:52:55;;;;;;;210.95;200.07;;;21.00;99.90;;;;;;5031600;28;20021;-80
2023/09/14 07:55:21;;;;;;;162.95;154.80;;;21.00;99.90;;;;;;5015648;28;20038;-81
2023/09/14 07:57:47;;;;;;;175.65;166.45;;;20.80;99.90;;;;;;5031564;28;20060;-81
2023/09/14 08:00:14;;;;;;;201.30;190.82;;;20.80;99.90;;;;;;5031030;28;20021;-81
2023/09/14 08:02:40;;;;;;;197.48;187.23;;;20.80;99.90;;;;;;5032850;28;20082;-80
2023/09/14 08:05:07;;;;;;;186.88;176.98;;;20.90;99.90;;;;;;5033721;28;20033;-80
2023/09/14 08:07:33;;;;;;;185.13;175.77;;;21.10;99.90;;;;;;5033675;28;20041;-80
2023/09/14 08:09:59;;;;;;;178.82;169.88;;;21.30;99.90;;;;;;5033364;28;20022;-79
2023/09/14 08:12:25;;;;;;;182.43;172.93;;;21.40;99.90;;;;;;5030953;28;20040;-79
2023/09/14 08:14:51;;;;;;;189.10;179.15;;;21.50;99.90;;;;;;5033069;28;20046;-79
2023/09/14 08:17:17;;;;;;;242.07;230.00;;;21.70;99.90;;;;;;5032616;28;20050;-79
2023/09/14 08:19:43;;;;;;;243.07;230.32;;;21.80;99.90;;;;;;5030063;28;20040;-81
2023/09/14 08:22:10;;;;;;;275.65;261.77;;;21.90;99.90;;;;;;5031468;28;20388;-82
2023/09/14 08:24:37;;;;;;;288.70;274.40;;;21.90;99.90;;;;;;5031748;28;20053;-80
2023/09/14 08:27:03;;;;;;;265.25;252.35;;;21.90;99.90;;;;;;5032768;28;20029;-80
2023/09/14 08:29:30;;;;;;;261.80;248.93;;;22.00;99.90;;;;;;5039565;28;20025;-81
2023/09/14 08:31:56;;;;;;;266.75;253.30;;;22.00;99.90;;;;;;5032454;28;20403;-80
2023/09/14 08:34:22;;;;;;;301.17;286.35;;;22.10;99.90;;;;;;5032836;28;20025;-78
2023/09/14 08:36:48;;;;;;;392.38;371.88;;;22.20;99.90;;;;;;5032668;28;20064;-77
2023/09/14 08:39:14;;;;;;;374.92;355.52;;;22.40;99.90;;;;;;5029669;28;20034;-72
2023/09/14 08:41:41;;;;;;;370.80;351.33;;;22.40;99.90;;;;;;5028659;28;20033;-72
2023/09/14 08:44:07;;;;;;;369.98;350.95;;;22.40;99.90;;;;;;5031695;28;20021;-72
2023/09/14 08:46:34;;;;;;;361.27;342.63;;;22.60;99.90;;;;;;5031462;28;20056;-72
2023/09/14 08:49:01;;;;;;;369.88;349.85;;;22.80;99.90;;;;;;5026859;28;20026;-72
2023/09/14 08:51:32;;;;;;;418.90;396.27;;;22.90;99.90;;;;;;5031817;28;20033;-72
2023/09/14 08:53:59;;;;;;;464.15;438.75;;;22.80;99.90;;;;;;5031187;28;20025;-72
2023/09/14 08:56:25;;;;;;;385.65;365.33;;;22.80;99.90;;;;;;5030584;28;20045;-72
2023/09/14 08:58:52;;;;;;;364.77;345.27;;;22.80;99.90;;;;;;5011591;28;20022;-72
2023/09/14 09:01:18;;;;;;;341.10;323.17;;;22.90;99.90;;;;;;5029162;28;20038;-71
2023/09/14 09:03:44;;;;;;;367.40;348.40;;;22.80;99.90;;;;;;5029303;28;20029;-72
2023/09/14 09:06:11;;;;;;;346.60;328.60;;;22.80;99.90;;;;;;5030601;28;20029;-70
2023/09/14 09:08:37;;;;;;;328.70;311.75;;;22.90;99.90;;;;;;5024517;28;20033;-70
2023/09/14 09:11:03;;;;;;;326.92;310.55;;;23.00;99.90;;;;;;5030182;28;20069;-70
2023/09/14 09:13:33;;;;;;;355.17;336.38;;;23.00;99.90;;;;;;5030162;28;20037;-70
2023/09/14 09:16:00;;;;;;;370.65;351.40;;;23.00;99.90;;;;;;5031674;28;20045;-73
2023/09/14 09:18:26;;;;;;;306.55;291.10;;;23.10;99.90;;;;;;5032040;28;20041;-73
2023/09/14 09:20:52;;;;;;;361.88;342.92;;;23.20;99.90;;;;;;5030507;28;20504;-74
2023/09/14 09:23:21;;;;;;;392.08;371.50;;;23.30;99.90;;;;;;5030971;28;20045;-73
2023/09/14 09:25:49;;;;;;;336.33;319.00;;;23.20;99.90;;;;;;5031381;28;20033;-73
2023/09/14 09:28:15;;;;;;;335.50;317.85;;;23.30;99.90;;;;;;5029264;28;20045;-74
2023/09/14 09:30:42;;;;;;;302.00;286.25;;;23.30;99.90;;;;;;5029655;28;20040;-74
2023/09/14 09:33:08;;;;;;;340.20;322.90;;;23.40;99.90;;;;;;5029348;28;20041;-73
2023/09/14 09:35:34;;;;;;;282.80;268.70;;;23.40;99.90;;;;;;5029878;28;20029;-74
2023/09/14 09:38:13;;;;;;;413.83;392.10;;;23.40;99.90;;;;;;5031350;28;20042;-74
2023/09/14 09:40:44;;;;;;;342.88;325.38;;;23.30;99.90;;;;;;5028474;28;20495;-74
2023/09/14 09:43:17;;;;;;;275.70;262.30;;;23.30;99.90;;;;;;5030161;28;20029;-73
2023/09/14 09:45:43;;;;;;;259.92;247.20;;;23.40;99.90;;;;;;5031445;28;20041;-73
2023/09/14 09:48:09;;;;;;;244.40;232.18;;;23.30;99.90;;;;;;5028785;28;20041;-74
2023/09/14 09:50:35;;;;;;;262.92;249.95;;;23.40;99.90;;;;;;5029839;28;20060;-74
2023/09/14 09:53:02;;;;;;;269.33;255.77;;;23.50;99.90;;;;;;5025280;28;20030;-74
2023/09/14 09:55:30;;;;;;;232.70;221.18;;;23.60;99.90;;;;;;5027715;28;20399;-74
2023/09/14 09:57:57;;;;;;;232.07;220.63;;;23.60;99.90;;;;;;5029351;28;20049;-74
2023/09/14 10:00:31;;;;;;;208.77;198.55;;;23.60;99.90;;;;;;5031197;28;20049;-75
2023/09/14 10:02:57;;;;;;;282.08;268.27;;;23.70;99.90;;;;;;5030060;28;20502;-75
2023/09/14 10:05:31;;;;;;;263.00;250.23;;;23.70;99.90;;;;;;5030208;28;20046;-75
2023/09/14 10:07:58;;;;;;;259.83;247.10;;;23.70;99.90;;;;;;5030800;28;20065;-72
2023/09/14 10:10:28;;;;;;;256.40;243.45;;;23.80;99.90;;;;;;5029975;28;20025;-74
2023/09/14 10:12:55;;;;;;;264.27;251.35;;;23.80;99.90;;;;;;5029543;28;20251;-74
2023/09/14 10:15:28;;;;;;;196.77;186.80;;;23.90;99.90;;;;;;5030393;28;20574;-73
2023/09/14 10:17:55;;;;;;;223.85;212.60;;;23.90;99.90;;;;;;5015658;28;20045;-75
2023/09/14 10:20:21;;;;;;;199.77;189.93;;;24.00;99.90;;;;;;5031536;28;20380;-72
2023/09/14 10:22:48;;;;;;;198.90;189.00;;;23.90;99.90;;;;;;5031268;28;20395;-71
2023/09/14 10:25:15;;;;;;;183.55;174.40;;;24.00;99.90;;;;;;5031113;28;20037;-72
2023/09/14 10:27:41;;;;;;;145.68;138.40;;;24.00;99.90;;;;;;5031099;28;20037;-72
2023/09/14 10:30:12;;;;;;;168.70;159.90;;;24.00;99.90;;;;;;5029042;28;20034;-71
2023/09/14 10:32:38;;;;;;;233.40;221.65;;;23.90;99.90;;;;;;5034668;28;20028;-72
2023/09/14 10:35:05;;;;;;;181.90;172.73;;;23.90;99.90;;;;;;5033417;28;20029;-72
2023/09/14 10:37:32;;;;;;;267.10;253.30;;;23.90;99.90;;;;;;5032259;28;20041;-72
2023/09/14 10:39:59;;;;;;;177.15;168.23;;;24.00;99.90;;;;;;5032090;28;20042;-72
2023/09/14 10:42:25;;;;;;;167.90;159.30;;;24.10;99.90;;;;;;5033418;28;20034;-72
2023/09/14 10:44:51;;;;;;;138.50;131.50;;;24.10;99.90;;;;;;5033098;28;20068;-72
2023/09/14 10:47:18;;;;;;;129.98;123.55;;;24.30;99.90;;;;;;5033253;28;20029;-71
2023/09/14 10:49:44;;;;;;;153.50;145.80;;;24.20;99.90;;;;;;5031870;28;20033;-72
2023/09/14 10:52:10;;;;;;;215.88;205.25;;;24.10;99.90;;;;;;5032107;28;20040;-72
2023/09/14 10:54:38;;;;;;;196.57;187.13;;;24.20;99.90;;;;;;5034192;28;20041;-71
2023/09/14 10:57:12;;;;;;;226.77;215.43;;;24.20;99.90;;;;;;5032078;28;20053;-71
2023/09/14 10:59:58;;;;;;;215.10;204.52;;;24.30;99.90;;;;;;5031087;28;20029;-71
2023/09/14 11:02:37;;;;;;;273.90;260.02;;;24.50;99.90;;;;;;5032993;28;20396;-74
2023/09/14 11:05:42;;;;;;;272.38;259.10;;;24.60;99.90;;;;;;5034068;28;20086;-72
2023/09/14 11:08:08;;;;;;;338.13;321.13;;;24.80;99.90;;;;;;4971483;28;20031;-72
2023/09/14 11:10:34;;;;;;;327.67;311.25;;;24.90;99.90;;;;;;4972384;28;20513;-72
2023/09/14 11:13:22;;;;;;;296.92;282.33;;;24.90;99.90;;;;;;4971710;28;20047;-72
2023/09/14 11:16:05;;;;;;;335.80;318.95;;;24.90;99.90;;;;;;4975253;28;20045;-72
2023/09/14 11:18:35;;;;;;;331.58;314.77;;;25.00;99.90;;;;;;4990048;28;20448;-72
2023/09/14 11:21:01;;;;;;;323.77;307.40;;;25.10;99.90;;;;;;4973915;28;20034;-73
2023/09/14 11:23:37;;;;;;;310.70;295.38;;;24.90;99.90;;;;;;4961361;28;20490;-72
2023/09/14 11:26:03;;;;;;;330.60;314.17;;;24.70;99.90;;;;;;4954324;28;20509;-72
2023/09/14 11:28:29;;;;;;;276.77;263.23;;;24.70;99.90;;;;;;4972380;28;20053;-72
2023/09/14 11:30:56;;;;;;;302.40;287.58;;;24.70;99.90;;;;;;4982246;28;20513;-72
2023/09/14 11:33:22;;;;;;;280.63;267.08;;;24.70;99.90;;;;;;4971975;28;20050;-72
2023/09/14 11:35:51;;;;;;;319.08;302.90;;;24.90;99.90;;;;;;4971055;28;20043;-72
2023/09/14 11:38:19;;;;;;;248.27;236.10;;;25.00;99.90;;;;;;4974937;28;20059;-72
2023/09/14 11:40:45;;;;;;;261.33;248.68;;;25.20;99.90;;;;;;4954814;28;20045;-72
2023/09/14 11:43:20;;;;;;;257.80;245.32;;;25.30;99.90;;;;;;4979643;28;20173;-72
2023/09/14 11:45:56;;;;;;;272.10;258.75;;;25.30;99.30;;;;;;5032111;28;20025;-72
2023/09/14 11:48:23;;;;;;;1999.90;999.90;;;25.30;99.90;;;;;;5051972;28;20044;-72
2023/09/14 11:50:50;;;;;;;1999.90;999.90;;;25.40;99.60;;;;;;5050846;28;20041;-72
2023/09/14 11:53:21;;;;;;;1999.90;999.90;;;25.50;98.70;;;;;;5033304;28;20037;-72
2023/09/14 11:55:47;;;;;;;;;;;25.10;98.30;;;;;;5033609;28;20029;-72
2023/09/14 11:58:13;;;;;;;307.15;291.75;;;24.90;98.40;;;;;;5051426;28;19912;-72
2023/09/14 12:00:41;;;;;;;240.35;228.57;;;25.00;99.70;;;;;;5051135;28;20487;-72
2023/09/14 12:03:07;;;;;;;1999.90;999.90;;;25.10;98.90;;;;;;5029704;28;20055;-72
2023/09/14 12:05:34;;;;;;;213.18;202.43;;;25.00;98.30;;;;;;5044679;28;20506;-72
2023/09/14 12:08:16;;;;;;;1999.90;999.90;;;24.90;98.20;;;;;;5052146;28;20506;-72
2023/09/14 12:10:43;;;;;;;274.50;260.95;;;24.90;98.50;;;;;;5051680;28;20521;-72
2023/09/14 12:13:14;;;;;;;1999.90;999.90;;;25.10;99.80;;;;;;5051028;28;20040;-72
2023/09/14 12:15:42;;;;;;;1999.90;999.90;;;25.00;98.60;;;;;;5051607;28;20049;-72
2023/09/14 12:18:10;;;;;;;1999.90;999.90;;;25.20;99.00;;;;;;5052827;28;20064;-72
2023/09/14 12:20:38;;;;;;;1999.90;999.90;;;25.50;99.10;;;;;;5051410;28;20040;-72